sensor_id;sensor_type;location;lat;lon;timestamp;temperature;humidity
16273;DHT22;8244;50.044;9.006;2023-04-12T00:03:19;9.00;99.90
16273;DHT22;8244;50.044;9.006;2023-04-12T00:08:21;9.00;99.90
16273;DHT22;8244;50.044;9.006;2023-04-12T00:13:25;9.00;99.90
16273;DHT22;8244;50.044;9.006;2023-04-12T00:18:28;9.00;99.90
16273;DHT22;8244;50.044;9.006;2023-04-12T00:23:30;8.90;99.90
16273;DHT22;8244;50.044;9.006;2023-04-12T00:28:33;8.90;99.90
16273;DHT22;8244;50.044;9.006;2023-04-12T00:33:36;8.90;99.90
16273;DHT22;8244;50.044;9.006;2023-04-12T00:38:37;8.90;99.90
16273;DHT22;8244;50.044;9.006;2023-04-12T00:43:39;8.90;99.90
16273;DHT22;8244;50.044;9.006;2023-04-12T00:48:43;8.90;99.90
16273;DHT22;8244;50.044;9.006;2023-04-12T00:53:47;8.90;99.90
16273;DHT22;8244;50.044;9.006;2023-04-12T00:58:49;8.90;99.90
16273;DHT22;8244;50.044;9.006;2023-04-12T01:03:53;8.90;99.90
16273;DHT22;8244;50.044;9.006;2023-04-12T01:09:09;8.90;99.90
16273;DHT22;8244;50.044;9.006;2023-04-12T01:14:22;9.00;99.90
16273;DHT22;8244;50.044;9.006;2023-04-12T01:19:41;9.00;99.90
16273;DHT22;8244;50.044;9.006;2023-04-12T01:25:02;9.00;99.90
16273;DHT22;8244;50.044;9.006;2023-04-12T01:30:07;9.00;99.90
16273;DHT22;8244;50.044;9.006;2023-04-12T01:35:10;8.90;99.90
16273;DHT22;8244;50.044;9.006;2023-04-12T01:40:13;8.90;99.90
16273;DHT22;8244;50.044;9.006;2023-04-12T01:45:16;8.80;99.90
16273;DHT22;8244;50.044;9.006;2023-04-12T01:50:22;8.80;99.90
16273;DHT22;8244;50.044;9.006;2023-04-12T01:55:26;8.80;99.90
16273;DHT22;8244;50.044;9.006;2023-04-12T02:00:33;8.70;99.90
16273;DHT22;8244;50.044;9.006;2023-04-12T02:05:36;8.70;99.90
16273;DHT22;8244;50.044;9.006;2023-04-12T02:10:37;8.70;99.90
16273;DHT22;8244;50.044;9.006;2023-04-12T02:15:41;8.60;99.90
16273;DHT22;8244;50.044;9.006;2023-04-12T02:20:43;8.60;99.90
16273;DHT22;8244;50.044;9.006;2023-04-12T02:25:45;8.60;99.90
16273;DHT22;8244;50.044;9.006;2023-04-12T02:30:48;8.60;99.90
16273;DHT22;8244;50.044;9.006;2023-04-12T02:35:53;8.60;99.90
16273;DHT22;8244;50.044;9.006;2023-04-12T02:40:56;8.60;99.90
16273;DHT22;8244;50.044;9.006;2023-04-12T02:45:59;8.50;99.90
16273;DHT22;8244;50.044;9.006;2023-04-12T02:51:01;8.50;99.90
16273;DHT22;8244;50.044;9.006;2023-04-12T02:56:03;8.50;99.90
16273;DHT22;8244;50.044;9.006;2023-04-12T03:01:06;8.50;99.90
16273;DHT22;8244;50.044;9.006;2023-04-12T03:06:08;8.50;99.90
16273;DHT22;8244;50.044;9.006;2023-04-12T03:11:10;8.50;99.90
16273;DHT22;8244;50.044;9.006;2023-04-12T03:16:25;8.40;99.90
16273;DHT22;8244;50.044;9.006;2023-04-12T03:21:29;8.40;99.90
16273;DHT22;8244;50.044;9.006;2023-04-12T03:26:31;8.40;99.90
16273;DHT22;8244;50.044;9.006;2023-04-12T03:31:34;8.40;99.90
16273;DHT22;8244;50.044;9.006;2023-04-12T03:36:36;8.40;99.90
16273;DHT22;8244;50.044;9.006;2023-04-12T03:41:38;8.30;99.90
16273;DHT22;8244;50.044;9.006;2023-04-12T03:46:41;8.30;99.90
16273;DHT22;8244;50.044;9.006;2023-04-12T03:51:42;8.30;99.90
16273;DHT22;8244;50.044;9.006;2023-04-12T03:56:44;8.30;99.90
16273;DHT22;8244;50.044;9.006;2023-04-12T04:01:47;8.30;99.90
16273;DHT22;8244;50.044;9.006;2023-04-12T04:06:49;8.20;99.90
16273;DHT22;8244;50.044;9.006;2023-04-12T04:11:51;8.20;99.90
16273;DHT22;8244;50.044;9.006;2023-04-12T04:16:54;8.20;99.90
16273;DHT22;8244;50.044;9.006;2023-04-12T04:21:56;8.20;99.90
16273;DHT22;8244;50.044;9.006;2023-04-12T04:26:58;8.10;99.90
16273;DHT22;8244;50.044;9.006;2023-04-12T04:32:01;8.10;99.90
16273;DHT22;8244;50.044;9.006;2023-04-12T04:37:03;8.10;99.90
16273;DHT22;8244;50.044;9.006;2023-04-12T04:42:05;8.00;99.90
16273;DHT22;8244;50.044;9.006;2023-04-12T04:47:08;8.00;99.90
16273;DHT22;8244;50.044;9.006;2023-04-12T04:52:10;8.00;99.90
16273;DHT22;8244;50.044;9.006;2023-04-12T04:57:12;8.00;99.90
16273;DHT22;8244;50.044;9.006;2023-04-12T05:02:15;8.00;99.90
16273;DHT22;8244;50.044;9.006;2023-04-12T05:07:17;8.00;99.90
16273;DHT22;8244;50.044;9.006;2023-04-12T05:12:19;7.90;99.90
16273;DHT22;8244;50.044;9.006;2023-04-12T05:17:22;8.00;99.90
16273;DHT22;8244;50.044;9.006;2023-04-12T05:22:23;8.00;99.90
16273;DHT22;8244;50.044;9.006;2023-04-12T05:27:25;8.00;99.90
16273;DHT22;8244;50.044;9.006;2023-04-12T05:32:28;7.90;99.90
16273;DHT22;8244;50.044;9.006;2023-04-12T05:37:30;7.90;99.90
16273;DHT22;8244;50.044;9.006;2023-04-12T05:42:32;8.00;99.90
16273;DHT22;8244;50.044;9.006;2023-04-12T05:47:35;8.00;99.90
16273;DHT22;8244;50.044;9.006;2023-04-12T05:52:36;8.00;99.90
16273;DHT22;8244;50.044;9.006;2023-04-12T05:57:38;8.00;99.90
16273;DHT22;8244;50.044;9.006;2023-04-12T06:02:41;8.00;99.90
16273;DHT22;8244;50.044;9.006;2023-04-12T06:07:43;8.00;99.90
16273;DHT22;8244;50.044;9.006;2023-04-12T06:12:47;8.00;99.90
16273;DHT22;8244;50.044;9.006;2023-04-12T06:17:50;8.00;99.90
16273;DHT22;8244;50.044;9.006;2023-04-12T06:22:52;8.00;99.90
16273;DHT22;8244;50.044;9.006;2023-04-12T06:27:53;8.00;99.90
16273;DHT22;8244;50.044;9.006;2023-04-12T06:32:56;8.10;99.90
16273;DHT22;8244;50.044;9.006;2023-04-12T06:37:58;8.10;99.90
16273;DHT22;8244;50.044;9.006;2023-04-12T06:43:00;8.10;99.90
16273;DHT22;8244;50.044;9.006;2023-04-12T06:48:03;8.10;99.90
16273;DHT22;8244;50.044;9.006;2023-04-12T06:53:05;8.20;99.90
16273;DHT22;8244;50.044;9.006;2023-04-12T06:58:06;8.20;99.90
16273;DHT22;8244;50.044;9.006;2023-04-12T07:03:09;8.20;99.90
16273;DHT22;8244;50.044;9.006;2023-04-12T07:08:11;8.20;99.90
16273;DHT22;8244;50.044;9.006;2023-04-12T07:13:13;8.30;99.90
16273;DHT22;8244;50.044;9.006;2023-04-12T07:18:16;8.30;99.90
16273;DHT22;8244;50.044;9.006;2023-04-12T07:23:17;8.40;99.90
16273;DHT22;8244;50.044;9.006;2023-04-12T07:28:19;8.40;99.90
16273;DHT22;8244;50.044;9.006;2023-04-12T07:33:23;8.50;99.90
16273;DHT22;8244;50.044;9.006;2023-04-12T07:38:25;8.60;99.90
16273;DHT22;8244;50.044;9.006;2023-04-12T07:43:27;8.60;99.90
16273;DHT22;8244;50.044;9.006;2023-04-12T07:48:30;8.60;99.90
16273;DHT22;8244;50.044;9.006;2023-04-12T07:53:31;8.70;99.90
16273;DHT22;8244;50.044;9.006;2023-04-12T07:58:33;8.70;99.90
16273;DHT22;8244;50.044;9.006;2023-04-12T08:03:36;8.70;99.90
16273;DHT22;8244;50.044;9.006;2023-04-12T08:08:38;8.80;99.90
16273;DHT22;8244;50.044;9.006;2023-04-12T08:13:40;8.80;99.90
16273;DHT22;8244;50.044;9.006;2023-04-12T08:18:43;8.90;99.90
16273;DHT22;8244;50.044;9.006;2023-04-12T08:23:44;9.00;99.90
16273;DHT22;8244;50.044;9.006;2023-04-12T08:28:46;9.20;99.90
16273;DHT22;8244;50.044;9.006;2023-04-12T08:33:49;9.30;99.90
16273;DHT22;8244;50.044;9.006;2023-04-12T08:38:51;9.30;99.90
16273;DHT22;8244;50.044;9.006;2023-04-12T08:43:55;9.30;99.90
16273;DHT22;8244;50.044;9.006;2023-04-12T08:48:58;9.30;99.90
16273;DHT22;8244;50.044;9.006;2023-04-12T08:54:00;9.40;99.90
16273;DHT22;8244;50.044;9.006;2023-04-12T08:59:02;9.40;99.90
16273;DHT22;8244;50.044;9.006;2023-04-12T09:04:06;9.40;99.90
16273;DHT22;8244;50.044;9.006;2023-04-12T09:09:08;9.50;99.90
16273;DHT22;8244;50.044;9.006;2023-04-12T09:14:20;9.70;99.90
16273;DHT22;8244;50.044;9.006;2023-04-12T09:19:32;9.80;99.90
16273;DHT22;8244;50.044;9.006;2023-04-12T09:24:45;9.90;99.90
16273;DHT22;8244;50.044;9.006;2023-04-12T09:29:47;9.90;99.90
16273;DHT22;8244;50.044;9.006;2023-04-12T09:34:56;10.10;99.90
16273;DHT22;8244;50.044;9.006;2023-04-12T09:39:58;10.20;99.90
16273;DHT22;8244;50.044;9.006;2023-04-12T09:45:18;10.30;99.90
16273;DHT22;8244;50.044;9.006;2023-04-12T09:50:23;10.50;99.90
16273;DHT22;8244;50.044;9.006;2023-04-12T09:55:27;10.60;99.90
16273;DHT22;8244;50.044;9.006;2023-04-12T10:00:30;10.60;99.90
16273;DHT22;8244;50.044;9.006;2023-04-12T10:05:35;10.70;99.90
16273;DHT22;8244;50.044;9.006;2023-04-12T10:10:38;10.70;99.90
16273;DHT22;8244;50.044;9.006;2023-04-12T10:15:40;10.80;99.90
16273;DHT22;8244;50.044;9.006;2023-04-12T10:20:45;10.90;99.90
16273;DHT22;8244;50.044;9.006;2023-04-12T10:25:47;11.00;99.90
16273;DHT22;8244;50.044;9.006;2023-04-12T10:30:49;11.00;99.90
16273;DHT22;8244;50.044;9.006;2023-04-12T10:35:56;11.00;99.90
16273;DHT22;8244;50.044;9.006;2023-04-12T10:41:10;11.10;99.90
16273;DHT22;8244;50.044;9.006;2023-04-12T10:46:46;11.20;99.90
16273;DHT22;8244;50.044;9.006;2023-04-12T10:52:12;11.20;99.90
16273;DHT22;8244;50.044;9.006;2023-04-12T10:57:39;11.20;99.90
16273;DHT22;8244;50.044;9.006;2023-04-12T11:03:04;11.30;99.90
16273;DHT22;8244;50.044;9.006;2023-04-12T11:08:07;11.50;99.90
16273;DHT22;8244;50.044;9.006;2023-04-12T11:13:09;11.60;99.90
16273;DHT22;8244;50.044;9.006;2023-04-12T11:18:11;11.70;99.90
16273;DHT22;8244;50.044;9.006;2023-04-12T11:23:14;11.90;99.90
16273;DHT22;8244;50.044;9.006;2023-04-12T11:28:17;12.00;99.90
16273;DHT22;8244;50.044;9.006;2023-04-12T11:33:33;12.10;99.90
16273;DHT22;8244;50.044;9.006;2023-04-12T11:38:36;12.30;99.90
16273;DHT22;8244;50.044;9.006;2023-04-12T11:43:38;12.50;99.90
16273;DHT22;8244;50.044;9.006;2023-04-12T11:48:44;12.70;99.90
16273;DHT22;8244;50.044;9.006;2023-04-12T11:53:53;12.70;99.90
16273;DHT22;8244;50.044;9.006;2023-04-12T11:58:55;12.80;99.90
16273;DHT22;8244;50.044;9.006;2023-04-12T12:03:58;12.90;99.90
16273;DHT22;8244;50.044;9.006;2023-04-12T12:09:01;13.10;99.90
16273;DHT22;8244;50.044;9.006;2023-04-12T12:14:03;13.30;99.90
16273;DHT22;8244;50.044;9.006;2023-04-12T12:19:06;13.30;99.90
16273;DHT22;8244;50.044;9.006;2023-04-12T12:24:10;13.60;99.90
16273;DHT22;8244;50.044;9.006;2023-04-12T12:29:16;14.10;99.90
16273;DHT22;8244;50.044;9.006;2023-04-12T12:34:18;14.60;99.90
16273;DHT22;8244;50.044;9.006;2023-04-12T12:39:21;15.20;99.90
16273;DHT22;8244;50.044;9.006;2023-04-12T12:44:23;15.60;99.90
16273;DHT22;8244;50.044;9.006;2023-04-12T12:49:25;15.60;99.90
16273;DHT22;8244;50.044;9.006;2023-04-12T12:54:28;15.50;99.90
16273;DHT22;8244;50.044;9.006;2023-04-12T12:59:29;15.60;99.90
16273;DHT22;8244;50.044;9.006;2023-04-12T13:04:31;15.70;99.90
16273;DHT22;8244;50.044;9.006;2023-04-12T13:09:34;15.70;99.90
16273;DHT22;8244;50.044;9.006;2023-04-12T13:14:36;15.70;99.90
16273;DHT22;8244;50.044;9.006;2023-04-12T13:19:37;15.90;99.90
16273;DHT22;8244;50.044;9.006;2023-04-12T13:24:41;15.70;99.90
16273;DHT22;8244;50.044;9.006;2023-04-12T13:29:43;15.70;99.90
16273;DHT22;8244;50.044;9.006;2023-04-12T13:34:45;15.60;99.90
16273;DHT22;8244;50.044;9.006;2023-04-12T13:39:49;15.50;99.90
16273;DHT22;8244;50.044;9.006;2023-04-12T13:44:51;15.20;99.90
16273;DHT22;8244;50.044;9.006;2023-04-12T13:49:53;15.20;99.90
16273;DHT22;8244;50.044;9.006;2023-04-12T13:54:56;15.10;99.90
16273;DHT22;8244;50.044;9.006;2023-04-12T13:59:59;14.90;99.90
16273;DHT22;8244;50.044;9.006;2023-04-12T14:05:00;14.80;99.90
16273;DHT22;8244;50.044;9.006;2023-04-12T14:10:04;14.70;99.90
16273;DHT22;8244;50.044;9.006;2023-04-12T14:15:07;14.70;99.90
16273;DHT22;8244;50.044;9.006;2023-04-12T14:20:09;14.70;99.90
16273;DHT22;8244;50.044;9.006;2023-04-12T14:25:13;14.50;99.90
16273;DHT22;8244;50.044;9.006;2023-04-12T14:30:14;14.30;99.90
16273;DHT22;8244;50.044;9.006;2023-04-12T14:35:16;14.10;99.90
16273;DHT22;8244;50.044;9.006;2023-04-12T14:40:19;14.10;99.90
16273;DHT22;8244;50.044;9.006;2023-04-12T14:45:21;14.00;99.90
16273;DHT22;8244;50.044;9.006;2023-04-12T14:50:23;14.00;99.90
16273;DHT22;8244;50.044;9.006;2023-04-12T14:55:26;13.80;99.90
16273;DHT22;8244;50.044;9.006;2023-04-12T15:00:28;13.70;99.90
16273;DHT22;8244;50.044;9.006;2023-04-12T15:05:30;13.60;99.90
16273;DHT22;8244;50.044;9.006;2023-04-12T15:10:33;13.60;99.90
16273;DHT22;8244;50.044;9.006;2023-04-12T15:15:36;13.60;99.90
16273;DHT22;8244;50.044;9.006;2023-04-12T15:20:38;13.40;99.90
16273;DHT22;8244;50.044;9.006;2023-04-12T15:25:41;13.50;99.90
16273;DHT22;8244;50.044;9.006;2023-04-12T15:30:42;13.60;99.90
16273;DHT22;8244;50.044;9.006;2023-04-12T15:35:44;13.60;99.90
16273;DHT22;8244;50.044;9.006;2023-04-12T15:40:52;13.70;99.90
16273;DHT22;8244;50.044;9.006;2023-04-12T15:45:55;13.60;99.90
16273;DHT22;8244;50.044;9.006;2023-04-12T15:50:57;13.50;99.90
16273;DHT22;8244;50.044;9.006;2023-04-12T15:56:00;13.60;99.90
16273;DHT22;8244;50.044;9.006;2023-04-12T16:01:04;13.70;99.90
16273;DHT22;8244;50.044;9.006;2023-04-12T16:06:06;13.80;99.90
16273;DHT22;8244;50.044;9.006;2023-04-12T16:11:10;13.70;99.90
16273;DHT22;8244;50.044;9.006;2023-04-12T16:16:12;13.40;99.90
16273;DHT22;8244;50.044;9.006;2023-04-12T16:21:16;13.30;99.90
16273;DHT22;8244;50.044;9.006;2023-04-12T16:26:20;13.30;99.90
16273;DHT22;8244;50.044;9.006;2023-04-12T16:31:22;13.50;99.90
16273;DHT22;8244;50.044;9.006;2023-04-12T16:36:25;13.50;99.90
16273;DHT22;8244;50.044;9.006;2023-04-12T16:41:32;13.60;99.90
16273;DHT22;8244;50.044;9.006;2023-04-12T16:46:33;13.50;99.90
16273;DHT22;8244;50.044;9.006;2023-04-12T16:51:36;13.50;99.90
16273;DHT22;8244;50.044;9.006;2023-04-12T16:56:40;13.50;99.90
16273;DHT22;8244;50.044;9.006;2023-04-12T17:01:42;13.50;99.90
16273;DHT22;8244;50.044;9.006;2023-04-12T17:06:45;13.50;99.90
16273;DHT22;8244;50.044;9.006;2023-04-12T17:11:48;13.50;99.90
16273;DHT22;8244;50.044;9.006;2023-04-12T17:16:49;13.40;99.90
16273;DHT22;8244;50.044;9.006;2023-04-12T17:21:51;13.30;99.90
16273;DHT22;8244;50.044;9.006;2023-04-12T17:26:55;13.20;99.90
16273;DHT22;8244;50.044;9.006;2023-04-12T17:31:58;13.20;99.90
16273;DHT22;8244;50.044;9.006;2023-04-12T17:37:00;13.10;99.90
16273;DHT22;8244;50.044;9.006;2023-04-12T17:42:05;13.00;99.90
16273;DHT22;8244;50.044;9.006;2023-04-12T17:47:06;12.80;99.90
16273;DHT22;8244;50.044;9.006;2023-04-12T17:52:08;12.80;99.90
16273;DHT22;8244;50.044;9.006;2023-04-12T17:57:11;12.70;99.90
16273;DHT22;8244;50.044;9.006;2023-04-12T18:02:13;12.50;99.90
16273;DHT22;8244;50.044;9.006;2023-04-12T18:07:16;12.30;99.90
16273;DHT22;8244;50.044;9.006;2023-04-12T18:12:19;12.20;99.90
16273;DHT22;8244;50.044;9.006;2023-04-12T18:17:20;12.10;99.90
16273;DHT22;8244;50.044;9.006;2023-04-12T18:22:22;12.00;99.90
16273;DHT22;8244;50.044;9.006;2023-04-12T18:27:25;11.80;99.90
16273;DHT22;8244;50.044;9.006;2023-04-12T18:32:27;11.70;99.90
16273;DHT22;8244;50.044;9.006;2023-04-12T18:37:28;11.60;99.90
16273;DHT22;8244;50.044;9.006;2023-04-12T18:42:31;11.50;99.90
16273;DHT22;8244;50.044;9.006;2023-04-12T18:47:34;11.40;99.90
16273;DHT22;8244;50.044;9.006;2023-04-12T18:52:38;11.30;99.90
16273;DHT22;8244;50.044;9.006;2023-04-12T18:57:41;11.10;99.90
16273;DHT22;8244;50.044;9.006;2023-04-12T19:02:42;11.10;99.90
16273;DHT22;8244;50.044;9.006;2023-04-12T19:07:44;11.00;99.90
16273;DHT22;8244;50.044;9.006;2023-04-12T19:12:47;10.90;99.90
16273;DHT22;8244;50.044;9.006;2023-04-12T19:17:49;10.80;99.90
16273;DHT22;8244;50.044;9.006;2023-04-12T19:22:51;10.70;99.90
16273;DHT22;8244;50.044;9.006;2023-04-12T19:27:54;10.60;99.90
16273;DHT22;8244;50.044;9.006;2023-04-12T19:32:56;10.60;99.90
16273;DHT22;8244;50.044;9.006;2023-04-12T19:37:58;10.30;99.90
16273;DHT22;8244;50.044;9.006;2023-04-12T19:43:01;9.80;99.90
16273;DHT22;8244;50.044;9.006;2023-04-12T19:48:03;9.50;99.90
16273;DHT22;8244;50.044;9.006;2023-04-12T19:53:05;9.40;99.90
16273;DHT22;8244;50.044;9.006;2023-04-12T19:58:08;9.40;99.90
16273;DHT22;8244;50.044;9.006;2023-04-12T20:03:10;9.30;99.90
16273;DHT22;8244;50.044;9.006;2023-04-12T20:08:12;9.30;99.90
16273;DHT22;8244;50.044;9.006;2023-04-12T20:13:15;9.30;99.90
16273;DHT22;8244;50.044;9.006;2023-04-12T20:18:17;9.30;99.90
16273;DHT22;8244;50.044;9.006;2023-04-12T20:23:19;9.10;99.90
16273;DHT22;8244;50.044;9.006;2023-04-12T20:28:22;9.00;99.90
16273;DHT22;8244;50.044;9.006;2023-04-12T20:33:25;8.80;99.90
16273;DHT22;8244;50.044;9.006;2023-04-12T20:38:26;8.70;99.90
16273;DHT22;8244;50.044;9.006;2023-04-12T20:43:32;8.60;99.90
16273;DHT22;8244;50.044;9.006;2023-04-12T20:48:34;8.40;99.90
16273;DHT22;8244;50.044;9.006;2023-04-12T20:53:37;8.20;99.90
16273;DHT22;8244;50.044;9.006;2023-04-12T20:58:41;8.20;99.90
16273;DHT22;8244;50.044;9.006;2023-04-12T21:03:43;8.10;99.90
16273;DHT22;8244;50.044;9.006;2023-04-12T21:08:45;8.00;99.90
16273;DHT22;8244;50.044;9.006;2023-04-12T21:13:49;8.00;99.90
16273;DHT22;8244;50.044;9.006;2023-04-12T21:18:51;7.80;99.90
16273;DHT22;8244;50.044;9.006;2023-04-12T21:23:54;7.70;99.90
16273;DHT22;8244;50.044;9.006;2023-04-12T21:28:57;7.60;99.90
16273;DHT22;8244;50.044;9.006;2023-04-12T21:34:01;7.50;99.90
16273;DHT22;8244;50.044;9.006;2023-04-12T21:39:03;7.30;99.90
16273;DHT22;8244;50.044;9.006;2023-04-12T21:44:06;7.20;99.90
16273;DHT22;8244;50.044;9.006;2023-04-12T21:49:08;7.10;99.90
16273;DHT22;8244;50.044;9.006;2023-04-12T21:54:09;7.00;99.90
16273;DHT22;8244;50.044;9.006;2023-04-12T21:59:12;7.00;99.90
16273;DHT22;8244;50.044;9.006;2023-04-12T22:04:14;6.90;99.90
16273;DHT22;8244;50.044;9.006;2023-04-12T22:09:16;6.90;99.90
16273;DHT22;8244;50.044;9.006;2023-04-12T22:14:19;6.80;99.90
16273;DHT22;8244;50.044;9.006;2023-04-12T22:19:21;6.80;99.90
16273;DHT22;8244;50.044;9.006;2023-04-12T22:24:22;6.80;99.90
16273;DHT22;8244;50.044;9.006;2023-04-12T22:29:26;6.80;99.90
16273;DHT22;8244;50.044;9.006;2023-04-12T22:34:29;6.80;99.90
16273;DHT22;8244;50.044;9.006;2023-04-12T22:39:31;6.70;99.90
16273;DHT22;8244;50.044;9.006;2023-04-12T22:44:34;6.60;99.90
16273;DHT22;8244;50.044;9.006;2023-04-12T22:49:43;6.60;99.90
16273;DHT22;8244;50.044;9.006;2023-04-12T22:54:45;6.50;99.90
16273;DHT22;8244;50.044;9.006;2023-04-12T22:59:49;6.50;99.90
16273;DHT22;8244;50.044;9.006;2023-04-12T23:04:51;6.40;99.90
16273;DHT22;8244;50.044;9.006;2023-04-12T23:09:53;6.40;99.90
16273;DHT22;8244;50.044;9.006;2023-04-12T23:14:56;6.30;99.90
16273;DHT22;8244;50.044;9.006;2023-04-12T23:19:58;6.30;99.90
16273;DHT22;8244;50.044;9.006;2023-04-12T23:25:01;6.30;99.90
16273;DHT22;8244;50.044;9.006;2023-04-12T23:30:05;6.40;99.90
16273;DHT22;8244;50.044;9.006;2023-04-12T23:35:07;6.40;99.90
16273;DHT22;8244;50.044;9.006;2023-04-12T23:40:09;6.50;99.90
16273;DHT22;8244;50.044;9.006;2023-04-12T23:45:16;6.60;99.90
16273;DHT22;8244;50.044;9.006;2023-04-12T23:50:18;6.60;99.90
16273;DHT22;8244;50.044;9.006;2023-04-12T23:55:19;6.60;99.90
